sensor_id;sensor_type;location;lat;lon;timestamp;temperature;humidity
52275;DHT22;38228;50.940;4.024;2023-02-27T00:01:43;2.40;99.90
52275;DHT22;38228;50.940;4.024;2023-02-27T00:04:09;2.40;99.90
52275;DHT22;38228;50.940;4.024;2023-02-27T00:06:34;2.40;99.90
52275;DHT22;38228;50.940;4.024;2023-02-27T00:09:00;2.40;99.90
52275;DHT22;38228;50.940;4.024;2023-02-27T00:11:26;2.30;99.90
52275;DHT22;38228;50.940;4.024;2023-02-27T00:13:52;2.40;99.90
52275;DHT22;38228;50.940;4.024;2023-02-27T00:16:17;2.40;99.90
52275;DHT22;38228;50.940;4.024;2023-02-27T00:18:43;2.40;99.90
52275;DHT22;38228;50.940;4.024;2023-02-27T00:21:08;2.30;99.90
52275;DHT22;38228;50.940;4.024;2023-02-27T00:23:34;2.30;99.90
52275;DHT22;38228;50.940;4.024;2023-02-27T00:26:00;2.30;99.90
52275;DHT22;38228;50.940;4.024;2023-02-27T00:28:26;2.30;99.90
52275;DHT22;38228;50.940;4.024;2023-02-27T00:30:51;2.30;99.90
52275;DHT22;38228;50.940;4.024;2023-02-27T00:33:17;2.30;99.90
52275;DHT22;38228;50.940;4.024;2023-02-27T00:35:42;2.30;99.90
52275;DHT22;38228;50.940;4.024;2023-02-27T00:38:08;2.30;99.90
52275;DHT22;38228;50.940;4.024;2023-02-27T00:40:33;2.30;99.90
52275;DHT22;38228;50.940;4.024;2023-02-27T00:43:02;2.20;99.90
52275;DHT22;38228;50.940;4.024;2023-02-27T00:45:28;2.30;99.90
52275;DHT22;38228;50.940;4.024;2023-02-27T00:47:53;2.30;99.90
52275;DHT22;38228;50.940;4.024;2023-02-27T00:50:19;2.30;99.90
52275;DHT22;38228;50.940;4.024;2023-02-27T00:52:45;2.40;99.90
52275;DHT22;38228;50.940;4.024;2023-02-27T00:55:10;2.40;99.90
52275;DHT22;38228;50.940;4.024;2023-02-27T00:57:36;2.40;99.90
52275;DHT22;38228;50.940;4.024;2023-02-27T01:00:03;2.30;99.90
52275;DHT22;38228;50.940;4.024;2023-02-27T01:02:31;2.40;99.90
52275;DHT22;38228;50.940;4.024;2023-02-27T01:04:57;2.40;99.90
52275;DHT22;38228;50.940;4.024;2023-02-27T01:07:22;2.30;99.90
52275;DHT22;38228;50.940;4.024;2023-02-27T01:09:48;2.30;99.90
52275;DHT22;38228;50.940;4.024;2023-02-27T01:12:13;2.20;99.90
52275;DHT22;38228;50.940;4.024;2023-02-27T01:14:39;2.20;99.90
52275;DHT22;38228;50.940;4.024;2023-02-27T01:17:04;2.20;99.90
52275;DHT22;38228;50.940;4.024;2023-02-27T01:19:30;2.30;99.90
52275;DHT22;38228;50.940;4.024;2023-02-27T01:21:56;2.30;99.90
52275;DHT22;38228;50.940;4.024;2023-02-27T01:24:21;2.30;99.90
52275;DHT22;38228;50.940;4.024;2023-02-27T01:26:47;2.40;99.90
52275;DHT22;38228;50.940;4.024;2023-02-27T01:29:14;2.30;99.90
52275;DHT22;38228;50.940;4.024;2023-02-27T01:31:40;2.30;99.90
52275;DHT22;38228;50.940;4.024;2023-02-27T01:34:05;2.20;99.90
52275;DHT22;38228;50.940;4.024;2023-02-27T01:36:31;2.30;99.90
52275;DHT22;38228;50.940;4.024;2023-02-27T01:38:56;2.20;99.90
52275;DHT22;38228;50.940;4.024;2023-02-27T01:41:22;2.10;99.90
52275;DHT22;38228;50.940;4.024;2023-02-27T01:43:58;2.30;99.90
52275;DHT22;38228;50.940;4.024;2023-02-27T01:46:24;2.20;99.90
52275;DHT22;38228;50.940;4.024;2023-02-27T01:48:51;2.30;99.90
52275;DHT22;38228;50.940;4.024;2023-02-27T01:51:19;2.30;99.90
52275;DHT22;38228;50.940;4.024;2023-02-27T01:53:45;2.30;99.90
52275;DHT22;38228;50.940;4.024;2023-02-27T01:56:17;2.40;99.90
52275;DHT22;38228;50.940;4.024;2023-02-27T01:58:43;2.30;99.90
52275;DHT22;38228;50.940;4.024;2023-02-27T02:01:10;2.30;99.90
52275;DHT22;38228;50.940;4.024;2023-02-27T02:03:45;2.20;99.90
52275;DHT22;38228;50.940;4.024;2023-02-27T02:06:12;2.30;99.90
52275;DHT22;38228;50.940;4.024;2023-02-27T02:08:41;2.40;99.90
52275;DHT22;38228;50.940;4.024;2023-02-27T02:11:08;2.30;99.90
52275;DHT22;38228;50.940;4.024;2023-02-27T02:13:34;2.40;99.90
52275;DHT22;38228;50.940;4.024;2023-02-27T02:16:22;2.40;99.90
52275;DHT22;38228;50.940;4.024;2023-02-27T02:18:59;2.20;99.90
52275;DHT22;38228;50.940;4.024;2023-02-27T02:27:04;2.30;99.90
52275;DHT22;38228;50.940;4.024;2023-02-27T02:32:36;2.30;99.90
52275;DHT22;38228;50.940;4.024;2023-02-27T02:37:45;2.40;99.90
52275;DHT22;38228;50.940;4.024;2023-02-27T02:40:15;2.00;99.90
52275;DHT22;38228;50.940;4.024;2023-02-27T02:42:46;2.00;99.90
52275;DHT22;38228;50.940;4.024;2023-02-27T02:45:23;2.10;99.90
52275;DHT22;38228;50.940;4.024;2023-02-27T02:50:49;2.20;99.90
52275;DHT22;38228;50.940;4.024;2023-02-27T02:53:24;2.10;99.90
52275;DHT22;38228;50.940;4.024;2023-02-27T02:58:42;2.10;99.90
52275;DHT22;38228;50.940;4.024;2023-02-27T03:01:21;1.90;99.90
52275;DHT22;38228;50.940;4.024;2023-02-27T03:06:41;2.00;99.90
52275;DHT22;38228;50.940;4.024;2023-02-27T03:09:13;2.10;99.90
52275;DHT22;38228;50.940;4.024;2023-02-27T03:11:42;2.00;99.90
52275;DHT22;38228;50.940;4.024;2023-02-27T03:14:21;2.00;99.90
52275;DHT22;38228;50.940;4.024;2023-02-27T03:16:49;2.10;99.90
52275;DHT22;38228;50.940;4.024;2023-02-27T03:21:48;2.00;99.90
52275;DHT22;38228;50.940;4.024;2023-02-27T03:24:22;1.90;99.90
52275;DHT22;38228;50.940;4.024;2023-02-27T03:26:49;2.00;99.90
52275;DHT22;38228;50.940;4.024;2023-02-27T03:29:19;1.90;99.90
52275;DHT22;38228;50.940;4.024;2023-02-27T03:31:48;2.00;99.90
52275;DHT22;38228;50.940;4.024;2023-02-27T03:34:20;2.00;99.90
52275;DHT22;38228;50.940;4.024;2023-02-27T03:39:19;1.70;99.90
52275;DHT22;38228;50.940;4.024;2023-02-27T03:42:07;1.70;99.90
52275;DHT22;38228;50.940;4.024;2023-02-27T03:44:54;1.70;99.90
52275;DHT22;38228;50.940;4.024;2023-02-27T03:47:22;1.70;99.90
52275;DHT22;38228;50.940;4.024;2023-02-27T03:49:47;1.80;99.90
52275;DHT22;38228;50.940;4.024;2023-02-27T03:52:16;1.80;99.90
52275;DHT22;38228;50.940;4.024;2023-02-27T03:54:44;1.70;99.90
52275;DHT22;38228;50.940;4.024;2023-02-27T03:57:11;1.60;99.90
52275;DHT22;38228;50.940;4.024;2023-02-27T03:59:39;1.60;99.90
52275;DHT22;38228;50.940;4.024;2023-02-27T04:02:05;1.80;99.90
52275;DHT22;38228;50.940;4.024;2023-02-27T04:04:31;1.70;99.90
52275;DHT22;38228;50.940;4.024;2023-02-27T04:06:58;1.80;99.90
52275;DHT22;38228;50.940;4.024;2023-02-27T04:12:34;1.80;99.90
52275;DHT22;38228;50.940;4.024;2023-02-27T04:17:30;1.70;99.90
52275;DHT22;38228;50.940;4.024;2023-02-27T04:27:58;1.60;99.90
52275;DHT22;38228;50.940;4.024;2023-02-27T04:30:29;1.60;99.90
52275;DHT22;38228;50.940;4.024;2023-02-27T04:35:41;1.50;99.90
52275;DHT22;38228;50.940;4.024;2023-02-27T04:40:41;1.50;99.90
52275;DHT22;38228;50.940;4.024;2023-02-27T04:43:08;1.60;99.90
52275;DHT22;38228;50.940;4.024;2023-02-27T04:45:35;1.60;99.90
52275;DHT22;38228;50.940;4.024;2023-02-27T04:48:25;1.50;99.90
52275;DHT22;38228;50.940;4.024;2023-02-27T04:51:02;1.50;99.90
52275;DHT22;38228;50.940;4.024;2023-02-27T04:53:37;1.40;99.90
52275;DHT22;38228;50.940;4.024;2023-02-27T04:56:09;1.30;99.90
52275;DHT22;38228;50.940;4.024;2023-02-27T04:58:39;1.20;99.90
52275;DHT22;38228;50.940;4.024;2023-02-27T05:01:07;1.20;99.90
52275;DHT22;38228;50.940;4.024;2023-02-27T05:03:38;1.10;99.90
52275;DHT22;38228;50.940;4.024;2023-02-27T05:06:05;1.10;99.90
52275;DHT22;38228;50.940;4.024;2023-02-27T05:08:34;1.20;99.90
52275;DHT22;38228;50.940;4.024;2023-02-27T05:11:08;1.20;99.90
52275;DHT22;38228;50.940;4.024;2023-02-27T05:13:42;1.30;99.90
52275;DHT22;38228;50.940;4.024;2023-02-27T05:18:38;1.00;99.90
52275;DHT22;38228;50.940;4.024;2023-02-27T05:21:23;0.90;99.90
52275;DHT22;38228;50.940;4.024;2023-02-27T05:24:05;1.00;99.90
52275;DHT22;38228;50.940;4.024;2023-02-27T05:31:34;1.30;99.90
52275;DHT22;38228;50.940;4.024;2023-02-27T05:34:06;1.10;99.90
52275;DHT22;38228;50.940;4.024;2023-02-27T05:36:33;1.10;99.90
52275;DHT22;38228;50.940;4.024;2023-02-27T05:39:00;0.90;99.90
52275;DHT22;38228;50.940;4.024;2023-02-27T05:43:57;0.50;99.90
52275;DHT22;38228;50.940;4.024;2023-02-27T05:46:26;0.60;99.90
52275;DHT22;38228;50.940;4.024;2023-02-27T05:48:59;0.80;99.90
52275;DHT22;38228;50.940;4.024;2023-02-27T05:51:26;0.70;99.90
52275;DHT22;38228;50.940;4.024;2023-02-27T05:53:55;0.40;99.90
52275;DHT22;38228;50.940;4.024;2023-02-27T05:56:22;0.30;99.90
52275;DHT22;38228;50.940;4.024;2023-02-27T05:59:01;0.00;99.90
52275;DHT22;38228;50.940;4.024;2023-02-27T06:01:29;-0.20;99.90
52275;DHT22;38228;50.940;4.024;2023-02-27T06:03:54;-0.30;99.90
52275;DHT22;38228;50.940;4.024;2023-02-27T06:06:20;-0.20;99.90
52275;DHT22;38228;50.940;4.024;2023-02-27T06:08:46;0.20;99.90
52275;DHT22;38228;50.940;4.024;2023-02-27T06:11:12;0.70;99.90
52275;DHT22;38228;50.940;4.024;2023-02-27T06:13:38;1.00;99.90
52275;DHT22;38228;50.940;4.024;2023-02-27T06:16:03;1.20;99.90
52275;DHT22;38228;50.940;4.024;2023-02-27T06:18:29;1.00;99.90
52275;DHT22;38228;50.940;4.024;2023-02-27T06:20:55;1.00;99.90
52275;DHT22;38228;50.940;4.024;2023-02-27T06:23:21;0.70;99.90
52275;DHT22;38228;50.940;4.024;2023-02-27T06:25:47;0.60;99.90
52275;DHT22;38228;50.940;4.024;2023-02-27T06:28:13;0.00;99.90
52275;DHT22;38228;50.940;4.024;2023-02-27T06:30:38;0.30;99.90
52275;DHT22;38228;50.940;4.024;2023-02-27T06:33:04;0.40;99.90
52275;DHT22;38228;50.940;4.024;2023-02-27T06:35:30;0.60;99.90
52275;DHT22;38228;50.940;4.024;2023-02-27T06:37:55;0.70;99.90
52275;DHT22;38228;50.940;4.024;2023-02-27T06:40:21;0.60;99.90
52275;DHT22;38228;50.940;4.024;2023-02-27T06:42:47;0.60;99.90
52275;DHT22;38228;50.940;4.024;2023-02-27T06:45:13;0.50;99.90
52275;DHT22;38228;50.940;4.024;2023-02-27T06:47:39;0.40;99.90
52275;DHT22;38228;50.940;4.024;2023-02-27T06:50:04;0.10;99.90
52275;DHT22;38228;50.940;4.024;2023-02-27T06:52:31;-0.20;99.90
52275;DHT22;38228;50.940;4.024;2023-02-27T06:54:56;0.00;99.90
52275;DHT22;38228;50.940;4.024;2023-02-27T06:57:22;0.30;99.90
52275;DHT22;38228;50.940;4.024;2023-02-27T06:59:48;0.70;99.90
52275;DHT22;38228;50.940;4.024;2023-02-27T07:02:14;0.80;99.90
52275;DHT22;38228;50.940;4.024;2023-02-27T07:04:40;0.90;99.90
52275;DHT22;38228;50.940;4.024;2023-02-27T07:07:06;0.90;99.90
52275;DHT22;38228;50.940;4.024;2023-02-27T07:09:31;1.00;99.90
52275;DHT22;38228;50.940;4.024;2023-02-27T07:11:57;0.80;99.90
52275;DHT22;38228;50.940;4.024;2023-02-27T07:14:22;0.80;99.90
52275;DHT22;38228;50.940;4.024;2023-02-27T07:16:50;0.70;99.90
52275;DHT22;38228;50.940;4.024;2023-02-27T07:19:19;0.60;99.90
52275;DHT22;38228;50.940;4.024;2023-02-27T07:21:45;0.70;99.90
52275;DHT22;38228;50.940;4.024;2023-02-27T07:24:10;0.90;99.90
52275;DHT22;38228;50.940;4.024;2023-02-27T07:26:36;1.10;99.90
52275;DHT22;38228;50.940;4.024;2023-02-27T07:29:02;1.50;99.90
52275;DHT22;38228;50.940;4.024;2023-02-27T07:31:28;1.70;99.90
52275;DHT22;38228;50.940;4.024;2023-02-27T07:33:53;1.60;99.90
52275;DHT22;38228;50.940;4.024;2023-02-27T07:36:19;1.60;99.90
52275;DHT22;38228;50.940;4.024;2023-02-27T07:38:44;1.60;99.90
52275;DHT22;38228;50.940;4.024;2023-02-27T07:41:10;1.70;99.90
52275;DHT22;38228;50.940;4.024;2023-02-27T07:43:36;1.70;99.90
52275;DHT22;38228;50.940;4.024;2023-02-27T07:46:01;1.70;99.90
52275;DHT22;38228;50.940;4.024;2023-02-27T07:48:30;1.70;99.90
52275;DHT22;38228;50.940;4.024;2023-02-27T07:50:56;1.70;99.90
52275;DHT22;38228;50.940;4.024;2023-02-27T07:53:22;1.80;99.90
52275;DHT22;38228;50.940;4.024;2023-02-27T07:55:48;1.70;99.90
52275;DHT22;38228;50.940;4.024;2023-02-27T07:58:13;1.70;99.90
52275;DHT22;38228;50.940;4.024;2023-02-27T08:00:39;1.70;99.90
52275;DHT22;38228;50.940;4.024;2023-02-27T08:03:05;1.80;99.90
52275;DHT22;38228;50.940;4.024;2023-02-27T08:05:30;1.80;99.90
52275;DHT22;38228;50.940;4.024;2023-02-27T08:07:56;1.80;99.90
52275;DHT22;38228;50.940;4.024;2023-02-27T08:10:22;1.80;99.90
52275;DHT22;38228;50.940;4.024;2023-02-27T08:12:48;1.90;99.90
52275;DHT22;38228;50.940;4.024;2023-02-27T08:15:13;2.00;99.90
52275;DHT22;38228;50.940;4.024;2023-02-27T08:17:39;2.00;99.90
52275;DHT22;38228;50.940;4.024;2023-02-27T08:20:04;2.10;99.90
52275;DHT22;38228;50.940;4.024;2023-02-27T08:22:31;2.20;99.90
52275;DHT22;38228;50.940;4.024;2023-02-27T08:24:57;2.20;99.90
52275;DHT22;38228;50.940;4.024;2023-02-27T08:27:23;2.40;99.90
52275;DHT22;38228;50.940;4.024;2023-02-27T08:29:48;2.40;99.90
52275;DHT22;38228;50.940;4.024;2023-02-27T08:32:14;2.30;99.90
52275;DHT22;38228;50.940;4.024;2023-02-27T08:34:39;2.40;99.90
52275;DHT22;38228;50.940;4.024;2023-02-27T08:37:05;2.60;99.90
52275;DHT22;38228;50.940;4.024;2023-02-27T08:39:31;2.60;99.90
52275;DHT22;38228;50.940;4.024;2023-02-27T08:41:56;2.50;99.90
52275;DHT22;38228;50.940;4.024;2023-02-27T08:44:23;2.60;99.90
52275;DHT22;38228;50.940;4.024;2023-02-27T08:46:48;2.60;99.90
52275;DHT22;38228;50.940;4.024;2023-02-27T08:49:14;2.70;99.90
52275;DHT22;38228;50.940;4.024;2023-02-27T08:51:40;2.70;99.90
52275;DHT22;38228;50.940;4.024;2023-02-27T08:54:05;2.80;99.90
52275;DHT22;38228;50.940;4.024;2023-02-27T08:56:31;2.90;99.90
52275;DHT22;38228;50.940;4.024;2023-02-27T08:58:58;3.10;99.90
52275;DHT22;38228;50.940;4.024;2023-02-27T09:01:24;3.10;99.90
52275;DHT22;38228;50.940;4.024;2023-02-27T09:03:52;3.20;99.90
52275;DHT22;38228;50.940;4.024;2023-02-27T09:06:18;3.10;99.90
52275;DHT22;38228;50.940;4.024;2023-02-27T09:08:43;3.10;99.90
52275;DHT22;38228;50.940;4.024;2023-02-27T09:11:09;3.10;99.90
52275;DHT22;38228;50.940;4.024;2023-02-27T09:13:34;3.20;99.90
52275;DHT22;38228;50.940;4.024;2023-02-27T09:16:00;3.40;99.90
52275;DHT22;38228;50.940;4.024;2023-02-27T09:18:28;3.50;99.90
52275;DHT22;38228;50.940;4.024;2023-02-27T09:20:54;3.70;99.90
52275;DHT22;38228;50.940;4.024;2023-02-27T09:23:20;3.80;99.90
52275;DHT22;38228;50.940;4.024;2023-02-27T09:25:46;3.70;99.90
52275;DHT22;38228;50.940;4.024;2023-02-27T09:28:11;3.80;99.90
52275;DHT22;38228;50.940;4.024;2023-02-27T09:30:37;3.90;99.90
52275;DHT22;38228;50.940;4.024;2023-02-27T09:33:02;3.90;99.90
52275;DHT22;38228;50.940;4.024;2023-02-27T09:35:28;3.80;99.90
52275;DHT22;38228;50.940;4.024;2023-02-27T09:37:55;3.80;99.90
52275;DHT22;38228;50.940;4.024;2023-02-27T09:40:26;3.80;99.90
52275;DHT22;38228;50.940;4.024;2023-02-27T09:42:53;3.90;99.90
52275;DHT22;38228;50.940;4.024;2023-02-27T09:47:46;4.00;99.90
52275;DHT22;38228;50.940;4.024;2023-02-27T09:52:43;4.00;99.90
52275;DHT22;38228;50.940;4.024;2023-02-27T09:55:14;4.10;99.90
52275;DHT22;38228;50.940;4.024;2023-02-27T09:58:03;4.00;99.90
52275;DHT22;38228;50.940;4.024;2023-02-27T10:00:38;4.00;99.90
52275;DHT22;38228;50.940;4.024;2023-02-27T10:05:48;4.10;99.90
52275;DHT22;38228;50.940;4.024;2023-02-27T10:10:49;4.40;99.90
52275;DHT22;38228;50.940;4.024;2023-02-27T10:15:54;4.40;99.90
52275;DHT22;38228;50.940;4.024;2023-02-27T10:20:49;4.60;99.90
52275;DHT22;38228;50.940;4.024;2023-02-27T10:23:17;4.60;99.90
52275;DHT22;38228;50.940;4.024;2023-02-27T10:25:44;4.50;99.90
52275;DHT22;38228;50.940;4.024;2023-02-27T10:28:11;4.70;99.90
52275;DHT22;38228;50.940;4.024;2023-02-27T10:30:37;4.80;99.90
52275;DHT22;38228;50.940;4.024;2023-02-27T10:33:07;4.80;99.90
52275;DHT22;38228;50.940;4.024;2023-02-27T10:35:34;4.90;99.90
52275;DHT22;38228;50.940;4.024;2023-02-27T10:38:04;5.00;99.90
52275;DHT22;38228;50.940;4.024;2023-02-27T10:40:30;5.10;99.90
52275;DHT22;38228;50.940;4.024;2023-02-27T10:43:00;5.20;99.90
52275;DHT22;38228;50.940;4.024;2023-02-27T10:45:26;5.20;99.90
52275;DHT22;38228;50.940;4.024;2023-02-27T10:47:52;5.30;99.90
52275;DHT22;38228;50.940;4.024;2023-02-27T10:50:28;5.30;99.90
52275;DHT22;38228;50.940;4.024;2023-02-27T10:52:57;5.30;99.90
52275;DHT22;38228;50.940;4.024;2023-02-27T10:55:24;5.30;99.90
52275;DHT22;38228;50.940;4.024;2023-02-27T10:57:51;5.30;99.90
52275;DHT22;38228;50.940;4.024;2023-02-27T11:00:24;5.40;99.90
52275;DHT22;38228;50.940;4.024;2023-02-27T11:02:50;5.30;99.90
52275;DHT22;38228;50.940;4.024;2023-02-27T11:05:35;5.30;99.90
52275;DHT22;38228;50.940;4.024;2023-02-27T11:08:12;5.40;99.90
52275;DHT22;38228;50.940;4.024;2023-02-27T11:10:38;5.50;99.90
52275;DHT22;38228;50.940;4.024;2023-02-27T11:13:20;5.50;99.90
52275;DHT22;38228;50.940;4.024;2023-02-27T11:15:46;5.60;99.90
52275;DHT22;38228;50.940;4.024;2023-02-27T11:18:26;5.70;99.90
52275;DHT22;38228;50.940;4.024;2023-02-27T11:20:53;5.80;99.90
52275;DHT22;38228;50.940;4.024;2023-02-27T11:23:20;6.00;99.90
52275;DHT22;38228;50.940;4.024;2023-02-27T11:25:46;5.90;99.90
52275;DHT22;38228;50.940;4.024;2023-02-27T11:28:13;6.10;99.90
52275;DHT22;38228;50.940;4.024;2023-02-27T11:30:43;6.20;99.90
52275;DHT22;38228;50.940;4.024;2023-02-27T11:33:14;6.50;99.90
52275;DHT22;38228;50.940;4.024;2023-02-27T11:35:41;6.60;99.90
52275;DHT22;38228;50.940;4.024;2023-02-27T11:38:18;6.40;99.90
52275;DHT22;38228;50.940;4.024;2023-02-27T11:40:48;6.40;99.90
52275;DHT22;38228;50.940;4.024;2023-02-27T11:43:16;6.40;99.90
52275;DHT22;38228;50.940;4.024;2023-02-27T11:45:43;6.30;99.90
52275;DHT22;38228;50.940;4.024;2023-02-27T11:48:18;6.40;99.90
52275;DHT22;38228;50.940;4.024;2023-02-27T11:51:02;6.60;99.90
52275;DHT22;38228;50.940;4.024;2023-02-27T11:55:55;6.70;99.90
52275;DHT22;38228;50.940;4.024;2023-02-27T11:58:24;6.60;99.90
52275;DHT22;38228;50.940;4.024;2023-02-27T12:00:53;6.60;99.90
52275;DHT22;38228;50.940;4.024;2023-02-27T12:05:48;6.40;99.90
52275;DHT22;38228;50.940;4.024;2023-02-27T12:11:05;6.30;99.90
52275;DHT22;38228;50.940;4.024;2023-02-27T12:13:38;6.40;99.90
52275;DHT22;38228;50.940;4.024;2023-02-27T12:18:42;6.50;99.90
52275;DHT22;38228;50.940;4.024;2023-02-27T12:21:10;6.50;99.90
52275;DHT22;38228;50.940;4.024;2023-02-27T12:23:41;6.40;99.90
52275;DHT22;38228;50.940;4.024;2023-02-27T12:31:49;6.70;99.90
52275;DHT22;38228;50.940;4.024;2023-02-27T12:34:23;6.70;99.90
52275;DHT22;38228;50.940;4.024;2023-02-27T12:36:55;6.60;99.90
52275;DHT22;38228;50.940;4.024;2023-02-27T12:39:21;6.50;99.90
52275;DHT22;38228;50.940;4.024;2023-02-27T12:44:22;6.50;99.90
52275;DHT22;38228;50.940;4.024;2023-02-27T12:59:39;6.50;99.90
52275;DHT22;38228;50.940;4.024;2023-02-27T13:02:15;6.70;99.90
52275;DHT22;38228;50.940;4.024;2023-02-27T13:04:46;6.70;99.90
52275;DHT22;38228;50.940;4.024;2023-02-27T13:07:27;6.80;99.90
52275;DHT22;38228;50.940;4.024;2023-02-27T13:09:55;6.80;99.90
52275;DHT22;38228;50.940;4.024;2023-02-27T13:14:53;6.80;99.90
52275;DHT22;38228;50.940;4.024;2023-02-27T13:24:48;7.00;99.90
52275;DHT22;38228;50.940;4.024;2023-02-27T13:32:31;6.80;99.90
52275;DHT22;38228;50.940;4.024;2023-02-27T13:37:55;6.90;99.90
52275;DHT22;38228;50.940;4.024;2023-02-27T13:42:55;7.10;99.90
52275;DHT22;38228;50.940;4.024;2023-02-27T13:48:34;7.20;99.90
52275;DHT22;38228;50.940;4.024;2023-02-27T13:50:51;7.10;99.90
52275;DHT22;38228;50.940;4.024;2023-02-27T13:53:17;7.10;99.90
52275;DHT22;38228;50.940;4.024;2023-02-27T13:55:43;7.10;99.90
52275;DHT22;38228;50.940;4.024;2023-02-27T13:58:13;7.10;99.90
52275;DHT22;38228;50.940;4.024;2023-02-27T14:00:39;7.10;99.90
52275;DHT22;38228;50.940;4.024;2023-02-27T14:03:16;7.20;99.90
52275;DHT22;38228;50.940;4.024;2023-02-27T14:05:44;7.20;99.90
52275;DHT22;38228;50.940;4.024;2023-02-27T14:10:36;7.40;99.40
52275;DHT22;38228;50.940;4.024;2023-02-27T14:13:03;7.30;99.90
52275;DHT22;38228;50.940;4.024;2023-02-27T14:17:56;7.50;99.90
52275;DHT22;38228;50.940;4.024;2023-02-27T14:25:37;8.00;99.90
52275;DHT22;38228;50.940;4.024;2023-02-27T14:28:03;8.10;99.10
52275;DHT22;38228;50.940;4.024;2023-02-27T14:30:34;8.00;99.20
52275;DHT22;38228;50.940;4.024;2023-02-27T14:33:04;8.10;99.60
52275;DHT22;38228;50.940;4.024;2023-02-27T14:35:31;8.30;99.20
52275;DHT22;38228;50.940;4.024;2023-02-27T14:37:58;8.60;98.90
52275;DHT22;38228;50.940;4.024;2023-02-27T14:40:29;8.70;98.20
52275;DHT22;38228;50.940;4.024;2023-02-27T14:43:12;8.60;98.30
52275;DHT22;38228;50.940;4.024;2023-02-27T14:45:40;8.50;98.70
52275;DHT22;38228;50.940;4.024;2023-02-27T14:48:07;8.50;98.80
52275;DHT22;38228;50.940;4.024;2023-02-27T14:50:34;8.70;99.00
52275;DHT22;38228;50.940;4.024;2023-02-27T14:53:04;8.70;98.50
52275;DHT22;38228;50.940;4.024;2023-02-27T14:55:31;8.60;98.20
52275;DHT22;38228;50.940;4.024;2023-02-27T14:57:59;8.30;99.00
52275;DHT22;38228;50.940;4.024;2023-02-27T15:02:54;8.50;99.20
52275;DHT22;38228;50.940;4.024;2023-02-27T15:05:20;8.80;98.40
52275;DHT22;38228;50.940;4.024;2023-02-27T15:07:48;9.00;97.90
52275;DHT22;38228;50.940;4.024;2023-02-27T15:10:17;9.30;97.70
52275;DHT22;38228;50.940;4.024;2023-02-27T15:12:48;9.60;97.20
52275;DHT22;38228;50.940;4.024;2023-02-27T15:15:15;9.90;96.80
52275;DHT22;38228;50.940;4.024;2023-02-27T15:17:43;9.70;95.70
52275;DHT22;38228;50.940;4.024;2023-02-27T15:22:45;8.50;97.30
52275;DHT22;38228;50.940;4.024;2023-02-27T15:25:30;8.70;97.50
52275;DHT22;38228;50.940;4.024;2023-02-27T15:27:56;8.70;97.00
52275;DHT22;38228;50.940;4.024;2023-02-27T15:30:23;8.30;97.60
52275;DHT22;38228;50.940;4.024;2023-02-27T15:32:48;8.00;98.30
52275;DHT22;38228;50.940;4.024;2023-02-27T15:35:15;7.80;98.40
52275;DHT22;38228;50.940;4.024;2023-02-27T15:37:45;7.70;98.30
52275;DHT22;38228;50.940;4.024;2023-02-27T15:40:16;7.60;98.70
52275;DHT22;38228;50.940;4.024;2023-02-27T15:42:43;7.70;99.10
52275;DHT22;38228;50.940;4.024;2023-02-27T15:45:09;7.50;99.30
52275;DHT22;38228;50.940;4.024;2023-02-27T15:47:35;7.20;99.50
52275;DHT22;38228;50.940;4.024;2023-02-27T15:50:05;6.90;99.90
52275;DHT22;38228;50.940;4.024;2023-02-27T15:55:22;6.60;99.90
52275;DHT22;38228;50.940;4.024;2023-02-27T15:57:48;6.50;99.90
52275;DHT22;38228;50.940;4.024;2023-02-27T16:00:15;6.40;99.90
52275;DHT22;38228;50.940;4.024;2023-02-27T16:02:42;6.50;99.90
52275;DHT22;38228;50.940;4.024;2023-02-27T16:07:47;6.60;99.90
52275;DHT22;38228;50.940;4.024;2023-02-27T16:10:21;6.60;99.90
52275;DHT22;38228;50.940;4.024;2023-02-27T16:12:47;6.60;99.90
52275;DHT22;38228;50.940;4.024;2023-02-27T16:20:48;6.30;99.90
52275;DHT22;38228;50.940;4.024;2023-02-27T16:23:25;6.20;99.90
52275;DHT22;38228;50.940;4.024;2023-02-27T16:28:31;6.10;99.90
52275;DHT22;38228;50.940;4.024;2023-02-27T16:30:57;6.10;99.90
52275;DHT22;38228;50.940;4.024;2023-02-27T16:33:23;6.10;99.90
52275;DHT22;38228;50.940;4.024;2023-02-27T16:35:49;6.00;99.90
52275;DHT22;38228;50.940;4.024;2023-02-27T16:38:17;5.90;99.90
52275;DHT22;38228;50.940;4.024;2023-02-27T16:40:43;6.00;99.90
52275;DHT22;38228;50.940;4.024;2023-02-27T16:43:09;6.00;99.90
52275;DHT22;38228;50.940;4.024;2023-02-27T16:45:35;6.10;99.90
52275;DHT22;38228;50.940;4.024;2023-02-27T16:48:00;6.10;99.90
52275;DHT22;38228;50.940;4.024;2023-02-27T16:50:28;6.20;99.90
52275;DHT22;38228;50.940;4.024;2023-02-27T16:52:54;6.00;99.90
52275;DHT22;38228;50.940;4.024;2023-02-27T16:55:21;5.90;99.90
52275;DHT22;38228;50.940;4.024;2023-02-27T16:57:47;5.80;99.90
52275;DHT22;38228;50.940;4.024;2023-02-27T17:00:13;5.90;99.90
52275;DHT22;38228;50.940;4.024;2023-02-27T17:02:39;5.90;99.90
52275;DHT22;38228;50.940;4.024;2023-02-27T17:05:04;5.90;99.90
52275;DHT22;38228;50.940;4.024;2023-02-27T17:07:30;5.90;99.90
52275;DHT22;38228;50.940;4.024;2023-02-27T17:09:56;5.80;99.90
52275;DHT22;38228;50.940;4.024;2023-02-27T17:12:21;5.80;99.90
52275;DHT22;38228;50.940;4.024;2023-02-27T17:14:47;5.70;99.90
52275;DHT22;38228;50.940;4.024;2023-02-27T17:17:12;5.70;99.90
52275;DHT22;38228;50.940;4.024;2023-02-27T17:19:38;5.60;99.90
52275;DHT22;38228;50.940;4.024;2023-02-27T17:22:04;5.70;99.90
52275;DHT22;38228;50.940;4.024;2023-02-27T17:24:29;5.60;99.90
52275;DHT22;38228;50.940;4.024;2023-02-27T17:26:55;5.60;99.90
52275;DHT22;38228;50.940;4.024;2023-02-27T17:29:21;5.50;99.90
52275;DHT22;38228;50.940;4.024;2023-02-27T17:31:47;5.50;99.90
52275;DHT22;38228;50.940;4.024;2023-02-27T17:34:12;5.50;99.90
52275;DHT22;38228;50.940;4.024;2023-02-27T17:36:38;5.60;99.90
52275;DHT22;38228;50.940;4.024;2023-02-27T17:39:03;5.50;99.90
52275;DHT22;38228;50.940;4.024;2023-02-27T17:41:30;5.50;99.90
52275;DHT22;38228;50.940;4.024;2023-02-27T17:43:56;5.50;99.90
52275;DHT22;38228;50.940;4.024;2023-02-27T17:46:22;5.60;99.90
52275;DHT22;38228;50.940;4.024;2023-02-27T17:48:48;5.50;99.90
52275;DHT22;38228;50.940;4.024;2023-02-27T17:51:14;5.50;99.90
52275;DHT22;38228;50.940;4.024;2023-02-27T17:53:40;5.50;99.90
52275;DHT22;38228;50.940;4.024;2023-02-27T17:56:06;5.40;99.90
52275;DHT22;38228;50.940;4.024;2023-02-27T17:58:32;5.40;99.90
52275;DHT22;38228;50.940;4.024;2023-02-27T18:01:05;5.30;99.90
52275;DHT22;38228;50.940;4.024;2023-02-27T18:03:31;5.40;99.90
52275;DHT22;38228;50.940;4.024;2023-02-27T18:05:56;5.40;99.90
52275;DHT22;38228;50.940;4.024;2023-02-27T18:08:22;5.40;99.90
52275;DHT22;38228;50.940;4.024;2023-02-27T18:10:48;5.30;99.90
52275;DHT22;38228;50.940;4.024;2023-02-27T18:13:14;5.50;99.90
52275;DHT22;38228;50.940;4.024;2023-02-27T18:15:40;5.30;99.90
52275;DHT22;38228;50.940;4.024;2023-02-27T18:18:06;5.20;99.90
52275;DHT22;38228;50.940;4.024;2023-02-27T18:20:31;5.10;99.90
52275;DHT22;38228;50.940;4.024;2023-02-27T18:22:57;5.00;99.90